createdAt,value
2022-08-05T00:00:16.770Z,23.50
2022-08-05T00:02:51.439Z,23.40
2022-08-05T00:06:03.119Z,23.40
2022-08-05T00:08:32.934Z,23.30
2022-08-05T00:11:01.461Z,23.30
2022-08-05T00:13:39.125Z,23.10
2022-08-05T00:16:12.613Z,23.20
2022-08-05T00:18:44.488Z,23.40
2022-08-05T00:21:14.424Z,23.40
2022-08-05T00:23:53.700Z,23.20
2022-08-05T00:26:31.736Z,23.20
2022-08-05T00:28:59.012Z,23.10
2022-08-05T00:31:54.309Z,23.00
2022-08-05T00:34:53.478Z,22.90
2022-08-05T00:37:10.347Z,23.00
2022-08-05T00:39:41.575Z,22.90
2022-08-05T00:42:37.009Z,22.90
2022-08-05T00:45:08.805Z,22.90
2022-08-05T00:47:56.870Z,22.90
2022-08-05T00:50:26.595Z,22.90
2022-08-05T00:52:55.131Z,22.90
2022-08-05T00:55:42.303Z,22.90
2022-08-05T00:58:19.127Z,22.90
2022-08-05T01:00:47.793Z,22.80
2022-08-05T01:03:22.222Z,22.80
2022-08-05T01:05:54.423Z,22.80
2022-08-05T01:08:41.246Z,22.90
2022-08-05T01:11:22.718Z,22.80
2022-08-05T01:14:11.973Z,22.60
2022-08-05T01:17:14.651Z,22.70
2022-08-05T01:20:01.366Z,22.50
2022-08-05T01:23:14.365Z,22.60
2022-08-05T01:26:07.573Z,22.70
2022-08-05T01:28:42.811Z,22.80
2022-08-05T01:31:15.661Z,22.80
2022-08-05T01:33:53.647Z,22.60
2022-08-05T01:36:28.124Z,22.60
2022-08-05T01:39:01.177Z,22.60
2022-08-05T01:41:34.782Z,22.70
2022-08-05T01:44:04.389Z,22.70
2022-08-05T01:46:42.559Z,22.80
2022-08-05T01:49:23.709Z,22.70
2022-08-05T01:51:59.634Z,22.60
2022-08-05T01:54:52.697Z,22.60
2022-08-05T01:58:10.294Z,22.70
2022-08-05T02:00:19.001Z,22.70
2022-08-05T02:03:24.086Z,22.70
2022-08-05T02:05:57.911Z,22.50
2022-08-05T02:08:31.147Z,22.60
2022-08-05T02:11:14.214Z,22.60
2022-08-05T02:14:21.198Z,22.50
2022-08-05T02:16:53.536Z,22.50
2022-08-05T02:19:25.709Z,22.60
2022-08-05T02:22:01.812Z,22.60
2022-08-05T02:24:37.644Z,22.60
2022-08-05T02:27:10.407Z,22.60
2022-08-05T02:29:59.751Z,22.70
2022-08-05T02:32:29.414Z,22.70
2022-08-05T02:35:13.826Z,22.70
2022-08-05T02:37:46.526Z,22.70
2022-08-05T02:40:17.281Z,22.70
2022-08-05T02:42:52.666Z,22.60
2022-08-05T02:45:25.253Z,22.50
2022-08-05T02:48:06.356Z,22.50
2022-08-05T02:50:38.512Z,22.70
2022-08-05T02:53:16.064Z,22.50
2022-08-05T02:55:54.207Z,22.40
2022-08-05T02:58:27.525Z,22.40
2022-08-05T03:01:01.981Z,22.60
2022-08-05T03:03:34.030Z,22.60
2022-08-05T03:06:53.703Z,22.60
2022-08-05T03:08:52.315Z,22.60
2022-08-05T03:11:54.794Z,22.50
2022-08-05T03:14:13.588Z,22.60
2022-08-05T03:16:41.031Z,22.50
2022-08-05T03:19:12.776Z,22.60
2022-08-05T03:21:49.336Z,22.50
2022-08-05T03:24:26.881Z,22.50
2022-08-05T03:26:59.261Z,22.40
2022-08-05T03:29:45.166Z,22.50
2022-08-05T03:32:16.846Z,22.40
2022-08-05T03:34:50.509Z,22.40
2022-08-05T03:37:20.654Z,22.50
2022-08-05T03:40:00.999Z,22.50
2022-08-05T03:42:32.411Z,22.50
2022-08-05T03:45:21.574Z,22.50
2022-08-05T03:47:51.608Z,22.30
2022-08-05T03:50:19.024Z,22.30
2022-08-05T03:55:49.760Z,22.40
2022-08-05T03:56:44.628Z,22.40
2022-08-05T03:59:47.093Z,22.40
2022-08-05T04:02:17.481Z,22.50
2022-08-05T04:05:05.950Z,22.40
2022-08-05T04:07:57.797Z,22.50
2022-08-05T04:10:33.373Z,22.60
2022-08-05T04:13:05.614Z,22.50
2022-08-05T04:15:36.107Z,22.50
2022-08-05T04:18:09.475Z,22.60
2022-08-05T04:20:38.477Z,22.60
2022-08-05T04:23:12.501Z,22.70
2022-08-05T04:25:57.085Z,22.60
2022-08-05T04:28:28.519Z,22.50
2022-08-05T04:31:00.826Z,22.70
2022-08-05T04:34:19.158Z,22.60
2022-08-05T04:36:45.871Z,22.70
2022-08-05T04:39:03.561Z,22.60
2022-08-05T04:41:37.617Z,22.70
2022-08-05T04:44:09.022Z,22.80
2022-08-05T04:46:38.503Z,22.80
2022-08-05T04:49:12.226Z,22.80
2022-08-05T04:51:44.412Z,23.00
2022-08-05T04:54:12.104Z,23.00
2022-08-05T04:56:39.712Z,23.00
2022-08-05T04:59:22.042Z,23.20
2022-08-05T05:02:35.282Z,23.40
2022-08-05T05:04:44.063Z,23.30
2022-08-05T05:07:17.159Z,23.40
2022-08-05T05:09:46.035Z,23.60
2022-08-05T05:12:13.364Z,23.60
2022-08-05T05:14:49.410Z,23.90
2022-08-05T05:17:23.392Z,23.50
2022-08-05T05:19:55.220Z,23.70
2022-08-05T05:22:26.114Z,24.10
2022-08-05T05:25:00.355Z,24.70
2022-08-05T05:27:44.866Z,24.50
2022-08-05T05:30:29.263Z,24.50
2022-08-05T05:33:00.815Z,24.90
2022-08-05T05:35:37.683Z,24.90
2022-08-05T05:38:09.254Z,25.90
2022-08-05T05:40:49.543Z,26.20
2022-08-05T05:43:21.841Z,26.10
2022-08-05T05:45:55.458Z,26.20
2022-08-05T05:48:27.526Z,26.20
2022-08-05T05:50:55.178Z,26.00
2022-08-05T05:53:22.958Z,25.90
2022-08-05T05:56:03.239Z,26.00
2022-08-05T05:58:32.241Z,26.10
2022-08-05T06:01:12.648Z,25.80
2022-08-05T06:04:00.755Z,25.80
2022-08-05T06:06:33.229Z,26.30
2022-08-05T06:09:04.244Z,26.60
2022-08-05T06:11:34.887Z,26.80
2022-08-05T06:14:06.583Z,26.30
2022-08-05T06:16:37.365Z,26.80
2022-08-05T06:19:07.303Z,27.20
2022-08-05T06:21:38.695Z,27.60
2022-08-05T06:24:11.593Z,27.10
2022-08-05T06:26:51.747Z,27.10
2022-08-05T06:29:46.609Z,27.20
2022-08-05T06:32:21.031Z,27.40
2022-08-05T06:34:57.919Z,27.60
2022-08-05T06:37:56.997Z,27.60
2022-08-05T06:40:18.377Z,27.40
2022-08-05T06:42:52.076Z,26.80
2022-08-05T06:45:45.108Z,27.20
2022-08-05T06:48:44.334Z,27.10
2022-08-05T06:50:56.360Z,27.10
2022-08-05T06:53:27.977Z,27.40
2022-08-05T06:55:58.628Z,27.20
2022-08-05T06:58:35.004Z,28.00
2022-08-05T07:01:06.684Z,28.00
2022-08-05T07:03:35.150Z,27.70
2022-08-05T07:06:05.748Z,27.40
2022-08-05T07:08:47.648Z,27.90
2022-08-05T07:11:22.138Z,27.50
2022-08-05T07:14:20.631Z,27.90
2022-08-05T07:17:56.217Z,27.70
2022-08-05T07:22:36.132Z,27.90
2022-08-05T07:25:23.831Z,28.10
2022-08-05T07:28:00.132Z,28.40
2022-08-05T07:30:38.573Z,28.90
2022-08-05T07:33:10.417Z,28.70
2022-08-05T07:36:04.064Z,28.70
2022-08-05T07:38:34.170Z,28.80
2022-08-05T07:41:35.168Z,29.20
2022-08-05T07:43:57.774Z,29.60
2022-08-05T07:46:26.921Z,29.60
2022-08-05T07:49:02.172Z,29.20
2022-08-05T07:51:40.874Z,29.20
2022-08-05T07:54:26.209Z,28.80
2022-08-05T07:57:01.827Z,28.60
2022-08-05T07:59:41.228Z,28.20
2022-08-05T08:02:16.499Z,29.10
2022-08-05T08:04:48.609Z,29.10
2022-08-05T08:07:18.419Z,28.60
2022-08-05T08:09:52.035Z,28.60
2022-08-05T08:12:36.848Z,29.00
2022-08-05T08:15:14.292Z,28.60
2022-08-05T08:17:52.370Z,28.60
2022-08-05T08:20:44.198Z,28.50
2022-08-05T08:23:11.550Z,29.10
2022-08-05T08:26:00.457Z,29.70
2022-08-05T08:28:36.275Z,29.90
2022-08-05T08:31:06.770Z,30.60
2022-08-05T08:33:37.548Z,29.80
2022-08-05T08:38:56.849Z,29.30
2022-08-05T08:41:51.119Z,29.20
2022-08-05T08:45:19.670Z,29.70
2022-08-05T08:47:47.437Z,29.30
2022-08-05T08:50:14.197Z,29.20
2022-08-05T08:52:51.349Z,29.50
2022-08-05T08:55:19.771Z,30.80
2022-08-05T08:58:07.446Z,30.40
2022-08-05T09:00:35.903Z,29.30
2022-08-05T09:03:06.883Z,29.70
2022-08-05T09:05:38.447Z,29.30
2022-08-05T09:08:27.382Z,29.90
2022-08-05T09:10:55.037Z,29.70
2022-08-05T09:13:23.583Z,29.80
2022-08-05T09:15:51.568Z,29.80
2022-08-05T09:18:18.817Z,29.50
2022-08-05T09:20:47.272Z,29.40
2022-08-05T09:23:21.781Z,30.10
2022-08-05T09:26:02.468Z,30.50
2022-08-05T09:28:34.335Z,30.80
2022-08-05T09:31:23.394Z,29.90
2022-08-05T09:34:06.551Z,30.10
2022-08-05T09:36:45.758Z,30.20
2022-08-05T09:39:39.518Z,30.20
2022-08-05T09:42:17.625Z,30.10
2022-08-05T09:45:17.292Z,30.10
2022-08-05T09:47:55.576Z,29.90
2022-08-05T09:50:38.890Z,31.10
2022-08-05T09:53:17.085Z,30.40
2022-08-05T09:56:11.399Z,29.70
2022-08-05T09:58:41.653Z,30.30
2022-08-05T10:01:22.369Z,30.70
2022-08-05T10:04:19.569Z,29.90
2022-08-05T10:06:59.462Z,30.00
2022-08-05T10:09:29.222Z,30.80
2022-08-05T10:12:30.320Z,30.80
2022-08-05T10:15:34.140Z,30.70
2022-08-05T10:18:20.303Z,31.10
2022-08-05T10:20:58.026Z,31.60
2022-08-05T10:23:55.865Z,33.50
2022-08-05T10:26:32.292Z,33.30
2022-08-05T10:29:00.389Z,32.40
2022-08-05T10:32:54.068Z,31.60
2022-08-05T10:34:14.807Z,31.40
2022-08-05T10:36:44.534Z,32.20
2022-08-05T10:40:03.375Z,32.60
2022-08-05T10:42:32.315Z,33.10
2022-08-05T10:45:21.611Z,34.90
2022-08-05T10:48:29.694Z,35.90
2022-08-05T10:51:03.427Z,37.10
2022-08-05T10:53:52.858Z,37.00
2022-08-05T10:56:27.407Z,36.40
2022-08-05T10:58:54.687Z,36.20
2022-08-05T11:01:55.438Z,35.90
2022-08-05T11:04:28.287Z,36.60
2022-08-05T11:06:58.431Z,35.00
2022-08-05T11:09:39.529Z,34.70
2022-08-05T11:12:42.342Z,34.50
2022-08-05T11:15:21.741Z,37.30
2022-08-05T11:18:03.820Z,36.00
2022-08-05T11:20:41.790Z,35.30
2022-08-05T11:23:49.915Z,35.20
2022-08-05T11:26:28.189Z,32.30
2022-08-05T11:28:57.104Z,30.50
2022-08-05T11:31:51.880Z,30.40
2022-08-05T11:34:37.924Z,34.80
2022-08-05T11:38:26.015Z,37.90
2022-08-05T11:39:55.408Z,38.60
2022-08-05T11:42:28.768Z,34.60
2022-08-05T11:45:14.590Z,34.90
2022-08-05T11:47:54.601Z,34.20
2022-08-05T11:50:22.951Z,32.50
2022-08-05T11:52:57.659Z,31.60
2022-08-05T11:55:31.931Z,30.90
2022-08-05T11:58:10.254Z,30.10
2022-08-05T12:00:41.377Z,29.90
2022-08-05T12:03:24.097Z,29.90
2022-08-05T12:06:05.873Z,30.50
2022-08-05T12:08:33.963Z,34.60
2022-08-05T12:11:09.545Z,36.70
2022-08-05T12:13:59.509Z,32.40
2022-08-05T12:16:41.086Z,31.70
2022-08-05T12:20:26.353Z,30.70
2022-08-05T12:22:01.390Z,30.90
2022-08-05T12:24:28.713Z,31.20
2022-08-05T12:26:57.359Z,31.50
2022-08-05T12:29:27.387Z,35.50
2022-08-05T12:32:01.838Z,36.40
2022-08-05T12:34:32.090Z,31.90
2022-08-05T12:37:03.417Z,30.80
2022-08-05T12:39:34.461Z,30.60
2022-08-05T12:42:19.259Z,30.40
2022-08-05T12:44:47.650Z,30.40
2022-08-05T12:47:28.835Z,30.40
2022-08-05T12:50:04.530Z,30.50
2022-08-05T12:52:39.180Z,31.00
2022-08-05T12:55:25.426Z,31.40
2022-08-05T12:58:50.692Z,30.30
2022-08-05T13:02:03.768Z,31.80
2022-08-05T13:03:42.104Z,32.40
2022-08-05T13:06:17.870Z,31.40
2022-08-05T13:08:52.049Z,30.80
2022-08-05T13:12:02.099Z,31.00
2022-08-05T13:14:19.341Z,33.10
2022-08-05T13:16:56.666Z,34.30
2022-08-05T13:19:52.211Z,34.10
2022-08-05T13:22:29.528Z,31.40
2022-08-05T13:25:00.721Z,33.20
2022-08-05T13:27:44.277Z,30.90
2022-08-05T13:30:33.803Z,30.50
2022-08-05T13:33:02.863Z,30.30
2022-08-05T13:35:42.820Z,32.00
2022-08-05T13:38:28.388Z,33.80
2022-08-05T13:41:00.084Z,32.40
2022-08-05T13:43:44.957Z,33.80
2022-08-05T13:46:16.351Z,35.40
2022-08-05T13:49:00.708Z,36.80
2022-08-05T13:51:36.634Z,35.20
2022-08-05T13:54:12.077Z,33.80
2022-08-05T13:56:45.144Z,33.40
2022-08-05T13:59:25.025Z,33.80
2022-08-05T14:02:00.305Z,33.60
2022-08-05T14:04:51.844Z,33.50
2022-08-05T14:07:25.361Z,33.00
2022-08-05T14:10:28.134Z,33.00
2022-08-05T14:12:57.132Z,32.90
2022-08-05T14:16:09.046Z,33.30
2022-08-05T14:18:18.273Z,32.80
2022-08-05T14:20:48.333Z,33.00
2022-08-05T14:23:23.946Z,33.30
2022-08-05T14:25:58.500Z,33.10
2022-08-05T14:28:30.154Z,34.30
2022-08-05T14:30:59.289Z,32.70
2022-08-05T14:33:32.624Z,31.40
2022-08-05T14:36:15.535Z,30.20
2022-08-05T14:38:48.178Z,29.80
2022-08-05T14:41:18.530Z,29.90
2022-08-05T14:44:02.393Z,29.80
2022-08-05T14:46:35.354Z,29.60
2022-08-05T14:49:07.647Z,29.80
2022-08-05T14:51:42.841Z,29.80
2022-08-05T14:54:28.440Z,29.70
2022-08-05T14:59:44.256Z,29.80
2022-08-05T15:02:25.123Z,29.70
2022-08-05T15:04:53.682Z,29.80
2022-08-05T15:08:13.166Z,29.70
2022-08-05T15:10:28.813Z,29.70
2022-08-05T15:13:01.474Z,29.60
2022-08-05T15:15:55.899Z,29.70
2022-08-05T15:18:26.810Z,29.60
2022-08-05T15:20:54.182Z,29.40
2022-08-05T15:23:21.656Z,29.50
2022-08-05T15:25:52.136Z,29.50
2022-08-05T15:28:27.321Z,29.70
2022-08-05T15:30:56.450Z,29.70
2022-08-05T15:34:05.540Z,29.50
2022-08-05T15:36:17.720Z,29.50
2022-08-05T15:40:41.753Z,29.40
2022-08-05T15:41:58.325Z,29.40
2022-08-05T15:44:28.093Z,29.50
2022-08-05T15:46:58.063Z,29.50
2022-08-05T15:49:42.223Z,29.40
2022-08-05T15:52:16.611Z,29.30
2022-08-05T15:54:57.179Z,29.20
2022-08-05T15:57:24.715Z,28.90
2022-08-05T15:59:57.604Z,28.80
2022-08-05T16:02:25.770Z,28.90
2022-08-05T16:04:55.418Z,28.90
2022-08-05T16:07:23.039Z,29.00
2022-08-05T16:09:50.935Z,28.90
2022-08-05T16:12:21.464Z,29.10
2022-08-05T16:14:48.621Z,29.20
2022-08-05T16:17:16.106Z,29.10
2022-08-05T16:20:04.959Z,28.90
2022-08-05T16:22:34.722Z,28.90
2022-08-05T16:25:09.350Z,28.90
2022-08-05T16:28:00.237Z,29.00
2022-08-05T16:30:29.071Z,28.90
2022-08-05T16:32:58.033Z,28.90
2022-08-05T16:35:28.457Z,28.80
2022-08-05T16:38:15.524Z,28.90
2022-08-05T16:40:48.093Z,28.70
2022-08-05T16:43:25.600Z,28.50
2022-08-05T16:46:03.614Z,28.50
2022-08-05T16:48:36.261Z,28.50
2022-08-05T16:51:10.061Z,28.40
2022-08-05T16:54:05.302Z,28.30
2022-08-05T16:56:29.721Z,28.20
2022-08-05T16:58:57.974Z,28.20
2022-08-05T17:01:25.798Z,28.00
2022-08-05T17:03:53.392Z,28.00
2022-08-05T17:06:24.649Z,27.90
2022-08-05T17:08:54.426Z,27.90
2022-08-05T17:11:25.443Z,27.80
2022-08-05T17:14:00.244Z,27.70
2022-08-05T17:16:36.352Z,27.60
2022-08-05T17:19:07.391Z,27.60
2022-08-05T17:21:37.707Z,27.50
2022-08-05T17:24:20.466Z,27.50
2022-08-05T17:26:57.916Z,27.60
2022-08-05T17:29:33.915Z,27.50
2022-08-05T17:32:11.330Z,27.40
2022-08-05T17:34:44.529Z,27.30
2022-08-05T17:37:40.545Z,27.20
2022-08-05T17:40:01.340Z,27.20
2022-08-05T17:42:31.929Z,27.20
2022-08-05T17:45:18.160Z,27.20
2022-08-05T17:47:54.057Z,27.10
2022-08-05T17:50:28.406Z,27.00
2022-08-05T17:53:05.137Z,27.00
2022-08-05T17:55:38.491Z,27.00
2022-08-05T17:58:13.318Z,27.10
2022-08-05T18:00:45.228Z,26.90
2022-08-05T18:03:39.310Z,26.80
2022-08-05T18:06:11.110Z,26.70
2022-08-05T18:08:44.226Z,26.70
2022-08-05T18:11:23.771Z,26.70
2022-08-05T18:13:52.588Z,26.60
2022-08-05T18:16:20.362Z,26.70
2022-08-05T18:18:49.966Z,26.50
2022-08-05T18:21:19.842Z,26.30
2022-08-05T18:23:53.665Z,26.00
2022-08-05T18:26:29.113Z,25.80
2022-08-05T18:28:57.345Z,25.70
2022-08-05T18:31:24.835Z,25.70
2022-08-05T18:33:52.864Z,25.70
2022-08-05T18:36:28.013Z,25.70
2022-08-05T18:38:56.095Z,25.50
2022-08-05T18:41:56.635Z,25.40
2022-08-05T18:44:12.770Z,25.30
2022-08-05T18:46:41.246Z,25.50
2022-08-05T18:49:30.720Z,25.60
2022-08-05T18:52:33.209Z,25.70
2022-08-05T18:55:02.631Z,25.90
2022-08-05T18:57:43.157Z,25.90
2022-08-05T19:00:20.447Z,25.90
2022-08-05T19:02:48.791Z,25.80
2022-08-05T19:06:06.988Z,25.80
2022-08-05T19:08:12.188Z,25.80
2022-08-05T19:10:41.521Z,25.80
2022-08-05T19:13:12.432Z,25.80
2022-08-05T19:15:59.926Z,25.70
2022-08-05T19:18:30.627Z,25.70
2022-08-05T19:20:59.782Z,25.70
2022-08-05T19:24:06.561Z,25.70
2022-08-05T19:26:16.717Z,25.60
2022-08-05T19:28:44.155Z,25.50
2022-08-05T19:31:17.972Z,25.40
2022-08-05T19:33:48.176Z,25.50
2022-08-05T19:36:26.862Z,25.40
2022-08-05T19:39:01.086Z,25.40
2022-08-05T19:42:06.553Z,25.40
2022-08-05T19:44:29.084Z,25.40
2022-08-05T19:46:57.096Z,25.30
2022-08-05T19:49:25.092Z,25.30
2022-08-05T19:52:09.143Z,25.30
2022-08-05T19:54:40.752Z,25.30
2022-08-05T19:57:10.120Z,25.20
2022-08-05T20:00:00.436Z,25.10
2022-08-05T20:02:31.339Z,25.00
2022-08-05T20:04:59.806Z,25.00
2022-08-05T20:07:47.503Z,24.90
2022-08-05T20:10:17.338Z,24.90
2022-08-05T20:12:49.062Z,24.80
2022-08-05T20:15:22.928Z,24.90
2022-08-05T20:18:10.602Z,24.70
2022-08-05T20:20:55.316Z,24.70
2022-08-05T20:23:40.006Z,24.70
2022-08-05T20:26:16.236Z,24.70
2022-08-05T20:28:51.455Z,24.30
2022-08-05T20:31:28.395Z,24.00
2022-08-05T20:34:04.937Z,23.80
2022-08-05T20:36:32.149Z,23.70
2022-08-05T20:39:00.078Z,23.80
2022-08-05T20:41:43.919Z,23.70
2022-08-05T20:44:19.274Z,23.70
2022-08-05T20:47:03.622Z,23.60
2022-08-05T20:49:37.982Z,23.60
2022-08-05T20:52:07.803Z,23.70
2022-08-05T20:54:43.573Z,23.70
2022-08-05T20:57:43.618Z,23.50
2022-08-05T21:00:40.058Z,23.50
2022-08-05T21:03:06.831Z,23.30
2022-08-05T21:05:47.526Z,23.10
2022-08-05T21:08:20.630Z,23.20
2022-08-05T21:10:53.635Z,23.20
2022-08-05T21:13:46.933Z,23.20
2022-08-05T21:16:08.314Z,23.30
2022-08-05T21:18:35.799Z,23.10
2022-08-05T21:21:03.271Z,23.20
2022-08-05T21:23:37.264Z,23.20
2022-08-05T21:26:12.410Z,23.00
2022-08-05T21:28:47.851Z,22.90
2022-08-05T21:31:18.589Z,23.00
2022-08-05T21:33:47.878Z,23.30
2022-08-05T21:36:29.871Z,23.60
2022-08-05T21:38:58.514Z,23.40
2022-08-05T21:41:33.719Z,23.30
2022-08-05T21:44:04.488Z,23.30
2022-08-05T21:46:35.348Z,23.30
2022-08-05T21:49:07.237Z,23.40
2022-08-05T21:52:21.573Z,23.40
2022-08-05T21:54:27.891Z,23.30
2022-08-05T21:57:28.428Z,23.20
2022-08-05T22:00:03.389Z,23.20
2022-08-05T22:02:32.913Z,23.00
2022-08-05T22:05:00.932Z,23.00
2022-08-05T22:07:40.436Z,23.00
2022-08-05T22:10:17.312Z,23.00
2022-08-05T22:12:54.520Z,23.00
2022-08-05T22:16:00.595Z,22.90
2022-08-05T22:18:12.968Z,22.80
2022-08-05T22:20:42.877Z,22.80
2022-08-05T22:24:00.935Z,22.60
2022-08-05T22:26:35.537Z,22.50
2022-08-05T22:29:03.342Z,22.40
2022-08-05T22:31:31.727Z,22.30
2022-08-05T22:34:12.924Z,22.40
2022-08-05T22:36:52.923Z,22.50
2022-08-05T22:39:21.472Z,22.20
2022-08-05T22:42:10.827Z,22.10
2022-08-05T22:44:36.029Z,22.20
2022-08-05T22:47:06.035Z,22.30
2022-08-05T22:50:20.401Z,22.20
2022-08-05T22:52:30.223Z,22.10
2022-08-05T22:55:02.041Z,22.00
2022-08-05T22:57:36.578Z,22.10
2022-08-05T23:00:07.883Z,22.10
2022-08-05T23:02:40.102Z,22.10
2022-08-05T23:05:15.175Z,22.00
2022-08-05T23:07:44.742Z,22.20
2022-08-05T23:10:13.512Z,22.10
2022-08-05T23:12:41.099Z,22.10
2022-08-05T23:15:11.875Z,22.20
2022-08-05T23:18:01.756Z,22.40
2022-08-05T23:20:26.428Z,22.60
2022-08-05T23:22:56.339Z,22.60
2022-08-05T23:25:53.629Z,22.60
2022-08-05T23:28:12.547Z,22.60
2022-08-05T23:30:43.863Z,22.60
2022-08-05T23:33:25.598Z,22.60
2022-08-05T23:36:09.902Z,22.60
2022-08-05T23:38:38.171Z,22.60
2022-08-05T23:41:05.763Z,22.50
2022-08-05T23:44:04.403Z,22.50
2022-08-05T23:46:22.076Z,22.50
2022-08-05T23:48:59.627Z,22.50
2022-08-05T23:51:55.038Z,22.40
2022-08-05T23:54:30.322Z,22.40
2022-08-05T23:57:04.005Z,22.20
